Time;durP1;ratioP1;P1;durP2;ratioP2;P2;SDS_P1;SDS_P2;PMS_P1;PMS_P2;Temp;Humidity;BMP_temperature;BMP_pressure;BME280_temperature;BME280_humidity;BME280_pressure;Samples;Min_cycle;Max_cycle;Signal;HPM_P1;HPM_P2
2022/04/09 00:01:56;;;;;;;7.07;1.87;;;5.80;99.90;;;;;;5176015;27;20038;-78
2022/04/09 00:04:21;;;;;;;7.87;1.53;;;5.80;99.90;;;;;;5175790;27;20125;-79
2022/04/09 00:06:47;;;;;;;9.27;2.40;;;5.70;99.90;;;;;;5175159;27;20060;-79
2022/04/09 00:09:13;;;;;;;12.57;2.33;;;5.70;99.90;;;;;;5176168;27;20046;-79
2022/04/09 00:11:39;;;;;;;5.67;1.87;;;5.70;99.90;;;;;;5175493;27;20505;-79
2022/04/09 00:14:05;;;;;;;13.35;2.10;;;5.70;99.90;;;;;;5156878;27;20117;-79
2022/04/09 00:16:31;;;;;;;7.33;1.67;;;5.70;99.90;;;;;;5175440;27;20074;-79
2022/04/09 00:18:57;;;;;;;7.77;1.73;;;5.70;99.90;;;;;;5175312;27;20087;-79
2022/04/09 00:21:22;;;;;;;9.20;2.13;;;5.70;99.90;;;;;;5176066;27;20042;-79
2022/04/09 00:23:48;;;;;;;7.57;1.77;;;5.60;99.90;;;;;;5157153;27;20038;-80
2022/04/09 00:26:14;;;;;;;8.77;2.33;;;5.70;99.90;;;;;;5153589;27;20085;-79
2022/04/09 00:28:39;;;;;;;14.93;2.73;;;5.60;99.90;;;;;;5154468;27;20034;-79
2022/04/09 00:31:05;;;;;;;17.20;2.40;;;5.60;99.90;;;;;;5154526;27;20524;-80
2022/04/09 00:33:31;;;;;;;13.13;2.60;;;5.60;99.90;;;;;;5154657;27;20079;-79
2022/04/09 00:35:56;;;;;;;10.97;2.50;;;5.70;99.90;;;;;;5153338;27;20497;-80
2022/04/09 00:38:25;;;;;;;15.23;2.27;;;5.70;99.90;;;;;;5154545;27;20089;-80
2022/04/09 00:40:50;;;;;;;15.02;3.50;;;5.80;99.90;;;;;;5154194;27;20050;-80
2022/04/09 00:43:16;;;;;;;11.40;1.97;;;5.70;99.90;;;;;;5153266;27;20195;-79
2022/04/09 00:45:42;;;;;;;15.40;2.37;;;5.70;99.90;;;;;;5154219;27;20049;-79
2022/04/09 00:48:10;;;;;;;13.33;3.43;;;5.70;99.90;;;;;;5153989;27;20046;-79
2022/04/09 00:50:36;;;;;;;14.95;2.50;;;5.80;99.90;;;;;;5154154;27;20050;-79
2022/04/09 00:53:03;;;;;;;9.77;2.00;;;5.80;99.90;;;;;;5153882;27;20035;-79
2022/04/09 00:58:16;;;;;;;13.27;2.35;;;5.70;99.90;;;;;;5153954;27;20069;-77
2022/04/09 01:00:42;;;;;;;15.50;2.70;;;5.70;99.90;;;;;;5154164;27;20057;-78
2022/04/09 01:03:11;;;;;;;11.10;1.70;;;5.70;99.90;;;;;;5153744;27;20371;-78
2022/04/09 01:05:38;;;;;;;8.20;1.70;;;5.70;99.90;;;;;;5154377;27;20403;-78
2022/04/09 01:08:05;;;;;;;9.82;1.88;;;5.70;99.90;;;;;;5153772;27;20129;-78
2022/04/09 01:10:30;;;;;;;6.90;1.50;;;5.60;99.90;;;;;;5152585;27;20043;-78
2022/04/09 01:12:56;;;;;;;8.50;1.40;;;5.60;99.90;;;;;;5153833;27;20046;-79
2022/04/09 01:15:22;;;;;;;7.23;1.63;;;5.60;99.90;;;;;;5154189;27;20544;-78
2022/04/09 01:17:47;;;;;;;6.00;1.23;;;5.50;99.90;;;;;;5154077;27;20082;-78
2022/04/09 01:20:21;;;;;;;6.63;1.50;;;5.60;99.90;;;;;;5153861;27;20050;-79
2022/04/09 01:22:47;;;;;;;3.97;0.98;;;5.50;99.90;;;;;;5154248;27;20482;-79
2022/04/09 01:25:12;;;;;;;3.63;1.20;;;5.50;99.90;;;;;;5156314;27;20043;-77
2022/04/09 01:27:38;;;;;;;5.13;1.23;;;5.50;99.90;;;;;;5171696;27;20486;-79
2022/04/09 01:30:05;;;;;;;6.88;1.20;;;5.50;99.90;;;;;;5174226;27;20117;-79
2022/04/09 01:32:31;;;;;;;8.68;1.40;;;5.40;99.90;;;;;;5174683;27;20042;-79
2022/04/09 01:35:00;;;;;;;6.93;1.63;;;5.40;99.90;;;;;;5174580;27;20034;-79
2022/04/09 01:37:26;;;;;;;8.77;1.33;;;5.40;99.90;;;;;;5139060;27;20046;-79
2022/04/09 01:39:52;;;;;;;6.53;1.53;;;5.40;99.90;;;;;;5141601;27;20057;-79
2022/04/09 01:42:20;;;;;;;6.13;1.20;;;5.40;99.90;;;;;;5160063;27;20042;-79
2022/04/09 01:44:46;;;;;;;8.98;1.70;;;5.30;99.90;;;;;;5142818;27;20394;-79
2022/04/09 01:47:12;;;;;;;9.90;1.73;;;5.30;99.90;;;;;;5178917;27;20052;-80
2022/04/09 01:49:38;;;;;;;7.60;1.93;;;5.30;99.90;;;;;;5179045;27;20482;-80
2022/04/09 01:52:04;;;;;;;8.40;1.70;;;5.30;99.90;;;;;;5179149;27;20426;-80
2022/04/09 01:54:30;;;;;;;10.87;1.83;;;5.40;99.90;;;;;;5179114;27;20034;-80
2022/04/09 01:56:55;;;;;;;10.07;1.90;;;5.40;99.90;;;;;;5179106;27;20050;-80
2022/04/09 01:59:21;;;;;;;9.97;1.60;;;5.40;99.90;;;;;;5178180;27;20098;-79
2022/04/09 02:01:48;;;;;;;10.83;1.50;;;5.40;99.90;;;;;;5178341;27;20081;-80
2022/04/09 02:04:15;;;;;;;15.82;1.80;;;5.40;99.90;;;;;;5177914;27;20121;-80
2022/04/09 02:06:42;;;;;;;16.00;2.67;;;5.40;99.90;;;;;;5178122;27;20413;-80
2022/04/09 02:09:12;;;;;;;9.75;2.13;;;5.40;99.90;;;;;;5159334;27;20046;-81
2022/04/09 02:11:42;;;;;;;10.43;1.70;;;5.40;99.90;;;;;;5159835;27;20086;-80
2022/04/09 02:14:09;;;;;;;8.23;1.88;;;5.40;99.90;;;;;;5159153;27;20046;-80
2022/04/09 02:16:36;;;;;;;11.05;2.10;;;5.40;99.90;;;;;;5177566;27;20510;-80
2022/04/09 02:19:03;;;;;;;7.30;1.40;;;5.40;99.90;;;;;;5177616;27;20171;-81
2022/04/09 02:21:28;;;;;;;12.88;2.08;;;5.40;99.90;;;;;;5177821;27;20054;-80
2022/04/09 02:23:54;;;;;;;14.30;2.07;;;5.40;99.90;;;;;;5177827;27;20038;-80
2022/04/09 02:26:20;;;;;;;7.63;1.20;;;5.40;99.90;;;;;;5158946;27;20053;-81
2022/04/09 02:28:48;;;;;;;8.65;1.52;;;5.40;99.90;;;;;;5178152;27;20469;-80
2022/04/09 02:31:17;;;;;;;15.10;1.70;;;5.40;99.90;;;;;;5142127;27;20048;-80
2022/04/09 02:33:46;;;;;;;7.75;1.70;;;5.40;99.90;;;;;;5177551;27;20053;-81
2022/04/09 02:36:13;;;;;;;9.95;1.85;;;5.30;99.90;;;;;;5177283;27;20046;-81
2022/04/09 02:38:42;;;;;;;9.10;1.48;;;5.30;99.90;;;;;;5177652;27;20046;-81
2022/04/09 02:41:09;;;;;;;9.13;1.65;;;5.30;99.90;;;;;;5177175;27;20136;-81
2022/04/09 02:43:38;;;;;;;6.20;1.40;;;5.20;99.90;;;;;;5177252;27;20041;-81
2022/04/09 02:46:04;;;;;;;6.57;1.10;;;5.20;99.90;;;;;;5141447;27;20042;-82
2022/04/09 02:48:30;;;;;;;9.83;1.80;;;5.20;99.90;;;;;;5177374;27;20443;-81
2022/04/09 02:50:56;;;;;;;7.27;1.27;;;5.20;99.90;;;;;;5158146;27;20098;-81
2022/04/09 02:53:21;;;;;;;10.83;1.60;;;5.20;99.90;;;;;;5177221;27;20041;-81
2022/04/09 02:55:47;;;;;;;7.30;1.07;;;5.20;99.90;;;;;;5177456;27;20046;-81
2022/04/09 02:58:13;;;;;;;7.03;1.40;;;5.10;99.90;;;;;;5141792;27;20054;-81
2022/04/09 03:00:39;;;;;;;6.73;1.37;;;5.10;99.90;;;;;;5159050;27;20435;-81
2022/04/09 03:03:05;;;;;;;7.43;1.98;;;5.10;99.90;;;;;;5177503;27;20049;-80
2022/04/09 03:05:31;;;;;;;7.73;1.60;;;5.10;99.90;;;;;;5177446;27;20465;-81
2022/04/09 03:07:57;;;;;;;13.93;2.30;;;5.10;99.90;;;;;;5177009;27;20415;-82
2022/04/09 03:10:23;;;;;;;14.52;2.70;;;5.20;99.90;;;;;;5140765;27;20052;-79
2022/04/09 03:12:49;;;;;;;8.73;1.30;;;4.90;99.90;;;;;;5176687;27;20053;-78
2022/04/09 03:15:16;;;;;;;11.93;1.53;;;5.10;99.90;;;;;;5176356;27;20397;-79
2022/04/09 03:17:42;;;;;;;14.27;2.28;;;5.20;99.90;;;;;;5176706;27;20046;-79
2022/04/09 03:20:08;;;;;;;11.70;2.07;;;5.30;99.90;;;;;;5158515;27;20049;-79
2022/04/09 03:22:34;;;;;;;12.35;2.20;;;5.30;99.90;;;;;;5176823;27;20298;-79
2022/04/09 03:25:01;;;;;;;12.77;1.92;;;5.30;99.90;;;;;;5176960;27;20050;-79
2022/04/09 03:27:27;;;;;;;12.70;2.00;;;5.30;99.90;;;;;;5177081;27;20054;-80
2022/04/09 03:29:53;;;;;;;11.50;2.27;;;5.30;99.90;;;;;;5176806;27;20064;-80
2022/04/09 03:32:20;;;;;;;16.42;2.42;;;5.30;99.90;;;;;;5176392;27;20146;-80
2022/04/09 03:34:45;;;;;;;9.98;2.08;;;5.30;99.90;;;;;;5179648;27;20046;-80
2022/04/09 03:37:11;;;;;;;9.73;1.93;;;5.30;99.90;;;;;;5175279;27;20561;-80
2022/04/09 03:39:38;;;;;;;10.80;1.80;;;5.30;99.90;;;;;;5140484;27;20100;-80
2022/04/09 03:42:04;;;;;;;14.85;2.28;;;5.10;99.90;;;;;;5176382;27;20129;-80
2022/04/09 03:44:30;;;;;;;10.55;1.80;;;5.10;99.90;;;;;;5175925;27;20046;-80
2022/04/09 03:47:00;;;;;;;9.20;1.87;;;5.70;99.90;;;;;;5157767;27;20182;-80
2022/04/09 03:49:28;;;;;;;17.27;2.28;;;5.00;99.90;;;;;;5175936;27;20042;-80
2022/04/09 03:51:53;;;;;;;11.45;2.25;;;5.10;99.90;;;;;;5176127;27;20133;-80
2022/04/09 03:54:19;;;;;;;7.77;1.60;;;4.90;99.90;;;;;;5175829;27;20159;-80
2022/04/09 03:56:45;;;;;;;12.10;1.70;;;5.00;99.90;;;;;;5175857;27;20046;-81
2022/04/09 03:59:11;;;;;;;8.75;1.65;;;5.00;99.90;;;;;;5140180;27;20046;-80
2022/04/09 04:01:37;;;;;;;10.33;1.63;;;5.30;99.90;;;;;;5175853;27;20042;-80
2022/04/09 04:04:03;;;;;;;7.97;1.50;;;5.00;99.90;;;;;;5175748;27;20048;-80
2022/04/09 04:06:29;;;;;;;15.23;2.15;;;5.00;99.90;;;;;;5175788;27;20042;-80
2022/04/09 04:08:58;;;;;;;9.70;2.07;;;5.00;99.90;;;;;;5176179;27;20397;-80
2022/04/09 04:11:24;;;;;;;9.07;1.88;;;5.00;99.90;;;;;;5175811;27;20065;-81
2022/04/09 04:13:49;;;;;;;10.45;1.65;;;5.10;99.90;;;;;;5175635;27;20394;-80
2022/04/09 04:16:16;;;;;;;14.10;2.17;;;;;;;;;;5157493;27;20039;-80
2022/04/09 04:18:42;;;;;;;11.18;1.63;;;;;;;;;;5157408;27;20046;-80
2022/04/09 04:21:08;;;;;;;10.15;1.83;;;;;;;;;;5176086;27;20501;-80
2022/04/09 04:23:35;;;;;;;10.57;1.80;;;;;;;;;;5175302;27;20557;-80
2022/04/09 04:26:01;;;;;;;7.93;1.77;;;;;;;;;;5157470;27;20146;-81
2022/04/09 04:28:27;;;;;;;6.88;1.67;;;;;;;;;;5175801;27;20050;-81
2022/04/09 04:30:53;;;;;;;13.55;1.52;;;;;;;;;;5176222;27;20110;-81
2022/04/09 04:33:19;;;;;;;10.50;1.58;;;;;;;;;;5175662;27;20042;-81
2022/04/09 04:35:46;;;;;;;14.27;2.13;;;;;;;;;;5157028;27;20406;-81
2022/04/09 04:38:12;;;;;;;13.77;1.90;;;;;;;;;;5175729;27;20126;-81
2022/04/09 04:40:38;;;;;;;11.55;2.22;;;;;;;;;;5174930;27;20053;-80
2022/04/09 04:43:04;;;;;;;11.93;1.95;;;;;;;;;;5175172;27;20046;-80
2022/04/09 04:45:30;;;;;;;15.55;1.70;;;;;;;;;;5174870;27;20038;-81
2022/04/09 04:47:57;;;;;;;18.02;2.40;;;;;;;;;;5175128;27;20098;-81
2022/04/09 04:50:23;;;;;;;10.30;1.52;;;;;;;;;;5175141;27;20056;-81
2022/04/09 04:52:50;;;;;;;11.77;1.85;;;;;;;;;;5156595;27;20052;-80
2022/04/09 04:55:16;;;;;;;12.52;2.22;;;;;;;;;;5139264;27;20050;-80
2022/04/09 04:57:43;;;;;;;9.90;1.80;;;;;;;;;;5174676;27;20452;-81
2022/04/09 05:00:10;;;;;;;11.10;2.15;;;;;;;;;;5175352;27;20053;-80
2022/04/09 05:02:36;;;;;;;10.77;1.95;;;;;;;;;;5175333;27;20039;-80
2022/04/09 05:05:03;;;;;;;11.43;2.00;;;;;;;;;;5175543;27;20093;-81
2022/04/09 05:07:45;;;;;;;11.55;1.83;;;;;;;;;;5175228;27;20401;-81
2022/04/09 05:10:13;;;;;;;7.25;1.50;;;;;;;;;;5174888;27;20049;-81
2022/04/09 05:12:39;;;;;;;8.95;1.60;;;;;;;;;;5174799;27;20037;-80
2022/04/09 05:15:06;;;;;;;8.55;1.35;;;5.40;99.90;;;;;;5159970;27;20046;-79
2022/04/09 05:17:32;;;;;;;10.98;1.63;;;5.40;99.90;;;;;;5179276;27;20046;-80
2022/04/09 05:19:58;;;;;;;12.37;1.93;;;5.60;99.90;;;;;;5179642;27;20053;-80
2022/04/09 05:22:27;;;;;;;16.98;2.42;;;5.50;99.90;;;;;;5179393;27;20046;-81
2022/04/09 05:24:53;;;;;;;9.88;1.95;;;5.50;99.90;;;;;;5160534;27;20045;-81
2022/04/09 05:27:19;;;;;;;7.93;1.88;;;5.50;99.90;;;;;;5160661;27;20054;-81
2022/04/09 05:29:45;;;;;;;11.43;2.03;;;5.50;99.90;;;;;;5179208;27;20374;-81
2022/04/09 05:32:10;;;;;;;10.30;1.67;;;5.50;99.90;;;;;;5178868;27;20053;-80
2022/04/09 05:34:36;;;;;;;8.97;1.73;;;5.50;99.90;;;;;;5178504;27;20038;-80
2022/04/09 05:37:02;;;;;;;10.67;1.90;;;5.50;99.90;;;;;;5160320;27;20038;-80
2022/04/09 05:39:28;;;;;;;9.77;1.70;;;5.40;99.90;;;;;;5178391;27;20049;-81
2022/04/09 05:41:53;;;;;;;11.03;2.07;;;5.40;99.90;;;;;;5143611;27;20042;-80
2022/04/09 05:44:19;;;;;;;15.10;1.90;;;5.40;99.90;;;;;;5180711;27;20129;-80
2022/04/09 05:46:45;;;;;;;9.17;1.73;;;5.40;99.90;;;;;;5178549;27;20500;-81
2022/04/09 05:49:10;;;;;;;9.57;1.57;;;5.50;99.90;;;;;;5178586;27;20046;-80
2022/04/09 05:51:36;;;;;;;9.30;1.77;;;5.50;99.90;;;;;;5178555;27;20046;-81
2022/04/09 05:54:03;;;;;;;11.67;1.97;;;5.50;99.90;;;;;;5159930;27;20042;-81
2022/04/09 05:56:28;;;;;;;13.35;2.55;;;5.60;99.90;;;;;;5178580;27;20042;-81
2022/04/09 05:58:54;;;;;;;10.43;1.93;;;5.60;99.90;;;;;;5178650;27;20477;-82
2022/04/09 06:01:20;;;;;;;10.00;2.03;;;5.70;99.90;;;;;;5159939;27;20042;-81
2022/04/09 06:03:45;;;;;;;11.90;2.20;;;5.70;99.90;;;;;;5177824;27;20512;-81
2022/04/09 06:06:11;;;;;;;13.10;2.27;;;5.90;99.90;;;;;;5178159;27;20078;-81
2022/04/09 06:08:37;;;;;;;10.77;2.13;;;6.00;99.90;;;;;;5159743;27;20072;-81
2022/04/09 06:11:04;;;;;;;12.77;2.13;;;6.10;99.90;;;;;;5178514;27;20073;-82
2022/04/09 06:13:30;;;;;;;12.32;2.20;;;6.30;99.90;;;;;;5178387;27;20513;-82
2022/04/09 06:15:55;;;;;;;11.40;2.27;;;6.50;99.90;;;;;;5178414;27;20046;-82
2022/04/09 06:18:21;;;;;;;11.83;2.10;;;6.50;99.90;;;;;;5159480;27;20042;-81
2022/04/09 06:20:47;;;;;;;12.30;2.23;;;6.50;99.90;;;;;;5177647;27;20042;-81
2022/04/09 06:23:13;;;;;;;12.30;2.10;;;6.50;99.90;;;;;;5159341;27;20183;-81
2022/04/09 06:25:38;;;;;;;11.93;2.00;;;6.40;99.90;;;;;;5157820;27;20487;-81
2022/04/09 06:28:04;;;;;;;10.70;2.07;;;6.30;99.90;;;;;;5178527;27;20490;-80
2022/04/09 06:30:30;;;;;;;12.17;2.23;;;6.30;99.90;;;;;;5177935;27;20046;-83
2022/04/09 06:32:56;;;;;;;8.30;1.70;;;6.20;99.90;;;;;;5159447;27;20053;-81
2022/04/09 06:35:22;;;;;;;9.30;1.60;;;6.10;99.90;;;;;;5178122;27;20233;-81
2022/04/09 06:37:48;;;;;;;9.10;2.10;;;6.10;99.90;;;;;;5177958;27;20038;-82
2022/04/09 06:40:14;;;;;;;7.63;1.70;;;7.00;99.90;;;;;;5177878;27;20046;-83
2022/04/09 06:42:41;;;;;;;10.73;1.80;;;8.60;99.90;;;;;;5176967;27;20509;-83
2022/04/09 06:45:08;;;;;;;11.35;1.60;;;10.30;99.90;;;;;;5159135;27;20042;-83
2022/04/09 06:47:38;;;;;;;11.87;1.97;;;12.00;99.90;;;;;;5177354;27;20125;-83
2022/04/09 06:50:12;;;;;;;10.33;1.97;;;13.10;99.90;;;;;;5177624;27;20286;-83
2022/04/09 06:52:39;;;;;;;11.63;2.27;;;14.10;98.40;;;;;;5177343;27;20282;-83
2022/04/09 06:55:05;;;;;;;9.73;1.67;;;14.60;98.70;;;;;;5177626;27;20280;-83
2022/04/09 06:57:32;;;;;;;9.27;2.33;;;14.90;95.60;;;;;;5177719;27;20284;-78
2022/04/09 06:59:59;;;;;;;10.73;2.33;;;15.10;94.60;;;;;;5177728;27;20312;-78
2022/04/09 07:02:25;;;;;;;9.73;2.07;;;15.00;90.40;;;;;;5177563;27;20275;-84
2022/04/09 07:04:51;;;;;;;11.43;2.00;;;14.30;85.50;;;;;;5177205;27;20370;-86
2022/04/09 07:07:25;;;;;;;9.13;1.70;;;13.40;85.00;;;;;;5159163;27;20053;-81
2022/04/09 07:09:52;;;;;;;7.83;1.57;;;12.40;81.40;;;;;;5177112;27;20280;-80
2022/04/09 07:12:18;;;;;;;9.20;1.70;;;11.60;89.50;;;;;;5177222;27;20276;-80
2022/04/09 07:14:44;;;;;;;6.63;1.33;;;11.70;91.70;;;;;;5177117;27;20311;-83
2022/04/09 07:17:09;;;;;;;6.20;2.17;;;12.70;97.20;;;;;;5176840;27;20046;-82
2022/04/09 07:19:38;;;;;;;7.10;1.33;;;13.50;86.60;;;;;;5176793;27;20511;-85
2022/04/09 07:22:05;;;;;;;8.60;1.90;;;14.60;81.10;;;;;;5176927;27;20405;-83
2022/04/09 07:24:30;;;;;;;11.83;2.53;;;15.60;75.60;;;;;;5176549;27;20585;-83
2022/04/09 07:26:56;;;;;;;8.23;2.13;;;16.90;58.50;;;;;;5176143;27;20302;-83
2022/04/09 07:29:22;;;;;;;8.93;2.13;;;17.00;63.90;;;;;;5158081;27;20392;-82
2022/04/09 07:31:47;;;;;;;11.23;2.07;;;17.70;63.70;;;;;;5176447;27;20046;-83
2022/04/09 07:34:13;;;;;;;8.07;2.50;;;18.10;60.80;;;;;;5158530;27;20060;-83
2022/04/09 07:36:39;;;;;;;7.80;2.07;;;18.80;59.20;;;;;;5176439;27;20125;-84
2022/04/09 07:39:07;;;;;;;9.80;2.50;;;19.20;57.80;;;;;;5176800;27;20050;-83
2022/04/09 07:41:33;;;;;;;6.73;1.83;;;19.40;54.00;;;;;;5158215;27;20099;-83
2022/04/09 07:43:59;;;;;;;8.87;2.50;;;;;;;;;;5157788;27;20419;-83
2022/04/09 07:46:25;;;;;;;6.47;2.10;;;18.10;54.00;;;;;;5176380;27;20160;-83
2022/04/09 07:48:51;;;;;;;12.43;2.47;;;;;;;;;;5176882;27;20065;-83
2022/04/09 07:51:17;;;;;;;8.90;2.33;;;;;;;;;;5180675;27;20101;-81
2022/04/09 07:53:42;;;;;;;8.90;2.33;;;16.80;60.30;;;;;;5176327;27;20038;-84
2022/04/09 07:56:08;;;;;;;8.53;2.30;;;16.40;56.70;;;;;;5176499;27;20044;-82
2022/04/09 07:58:34;;;;;;;6.57;1.90;;;16.00;57.30;;;;;;5176506;27;20072;-83
2022/04/09 08:01:00;;;;;;;7.97;1.70;;;15.50;57.80;;;;;;5157521;27;20102;-83
2022/04/09 08:03:26;;;;;;;10.40;2.23;;;15.00;58.30;;;;;;5176471;27;20042;-83
2022/04/09 08:05:52;;;;;;;8.10;1.80;;;;;;;;;;5175806;27;20057;-83
2022/04/09 08:08:18;;;;;;;10.13;2.53;;;;;;;;;;5175962;27;20323;-83
2022/04/09 08:10:44;;;;;;;8.00;2.20;;;13.80;59.50;;;;;;5175781;27;20109;-83
2022/04/09 08:13:10;;;;;;;8.47;1.70;;;13.40;60.80;;;;;;5157947;27;20046;-83
2022/04/09 08:15:37;;;;;;;6.90;1.63;;;13.40;70.60;;;;;;5157465;27;20050;-82
2022/04/09 08:18:07;;;;;;;7.90;2.10;;;12.80;62.20;;;;;;5175905;27;20096;-82
2022/04/09 08:20:33;;;;;;;8.80;1.70;;;12.50;63.00;;;;;;5157296;27;20272;-82
2022/04/09 08:23:00;;;;;;;9.73;2.30;;;12.30;64.70;;;;;;5175846;27;20279;-82
2022/04/09 08:25:26;;;;;;;9.47;2.20;;;12.20;65.40;;;;;;5175911;27;20054;-82
2022/04/09 08:27:53;;;;;;;12.67;2.37;;;12.10;66.30;;;;;;5175383;27;20292;-82
2022/04/09 08:30:21;;;;;;;11.97;1.90;;;12.00;66.80;;;;;;5176040;27;20276;-82
2022/04/09 08:32:49;;;;;;;8.17;2.00;;;11.90;67.70;;;;;;5175831;27;20276;-82
2022/04/09 08:35:16;;;;;;;9.87;2.13;;;11.70;68.50;;;;;;5176201;27;20693;-82
2022/04/09 08:37:42;;;;;;;11.43;2.23;;;11.70;70.60;;;;;;5175986;27;20326;-82
2022/04/09 08:40:13;;;;;;;8.90;2.00;;;11.70;71.70;;;;;;5140235;27;20311;-82
2022/04/09 08:42:38;;;;;;;9.57;2.33;;;11.70;73.00;;;;;;5176166;27;20077;-82
2022/04/09 08:45:05;;;;;;;11.03;2.60;;;11.70;72.70;;;;;;5175585;27;20793;-82
2022/04/09 08:47:33;;;;;;;11.37;2.60;;;11.50;73.30;;;;;;5139846;27;20053;-82
2022/04/09 08:49:59;;;;;;;8.93;2.27;;;11.50;86.40;;;;;;5174794;27;20358;-83
2022/04/09 08:52:26;;;;;;;8.33;2.03;;;11.40;84.50;;;;;;5175904;27;20271;-82
2022/04/09 08:54:52;;;;;;;8.57;2.13;;;11.40;86.90;;;;;;5157140;27;20283;-83
2022/04/09 08:57:18;;;;;;;10.03;2.10;;;11.40;86.30;;;;;;5157638;27;20367;-83
2022/04/09 08:59:43;;;;;;;9.10;2.20;;;11.30;85.20;;;;;;5175754;27;20121;-82
2022/04/09 09:02:10;;;;;;;12.17;2.03;;;11.10;76.20;;;;;;5122526;27;20046;-83
2022/04/09 09:04:36;;;;;;;8.90;2.20;;;10.90;75.30;;;;;;5176098;27;20066;-82
2022/04/09 09:07:21;;;;;;;9.37;1.93;;;;;;;;;;5142625;27;20283;-82
2022/04/09 09:09:48;;;;;;;10.10;1.83;;;10.60;76.20;;;;;;5158167;27;20097;-82
2022/04/09 09:12:30;;;;;;;9.40;2.00;;;10.50;76.60;;;;;;5175809;27;20283;-82
2022/04/09 09:14:57;;;;;;;8.27;2.03;;;10.50;76.30;;;;;;5175671;27;20575;-82
2022/04/09 09:17:30;;;;;;;11.10;2.00;;;10.40;76.80;;;;;;5175715;27;20324;-82
2022/04/09 09:19:57;;;;;;;10.83;2.53;;;10.40;78.40;;;;;;5157174;27;20283;-82
2022/04/09 09:22:38;;;;;;;14.77;1.97;;;10.30;78.90;;;;;;5157409;27;20623;-82
2022/04/09 09:25:06;;;;;;;9.67;2.17;;;10.30;77.40;;;;;;5156836;27;20291;-82
2022/04/09 09:27:31;;;;;;;9.20;1.60;;;10.20;77.40;;;;;;5175102;27;20291;-82
2022/04/09 09:29:57;;;;;;;8.53;1.60;;;10.20;76.80;;;;;;5156801;27;20611;-82
2022/04/09 09:32:28;;;;;;;6.43;1.77;;;10.20;75.50;;;;;;5175545;27;20042;-82
2022/04/09 09:34:59;;;;;;;7.27;1.40;;;10.20;73.10;;;;;;5175311;27;20044;-82
2022/04/09 09:37:28;;;;;;;7.67;1.50;;;10.30;73.00;;;;;;5157265;27;20346;-81
2022/04/09 09:39:55;;;;;;;6.70;1.23;;;10.50;73.20;;;;;;5175463;27;20323;-82
2022/04/09 09:42:22;;;;;;;6.33;1.50;;;10.50;74.00;;;;;;5176182;27;20308;-82
2022/04/09 09:44:49;;;;;;;7.23;1.50;;;10.30;74.90;;;;;;5157416;27;20398;-82
2022/04/09 09:47:15;;;;;;;8.57;1.20;;;10.20;77.00;;;;;;5175432;27;20276;-82
2022/04/09 09:49:48;;;;;;;5.03;1.20;;;;;;;;;;5175552;27;20358;-81
2022/04/09 09:52:14;;;;;;;5.60;1.80;;;9.90;79.50;;;;;;5174854;27;20688;-81
2022/04/09 09:54:58;;;;;;;8.50;1.50;;;9.80;82.50;;;;;;5175806;27;20278;-81
2022/04/09 09:57:28;;;;;;;6.43;1.33;;;9.80;85.80;;;;;;5175820;27;20336;-81
2022/04/09 09:59:57;;;;;;;7.63;1.23;;;9.80;87.70;;;;;;5160465;27;20284;-81
2022/04/09 10:02:24;;;;;;;5.53;1.30;;;9.90;90.20;;;;;;5162176;27;20288;-82
2022/04/09 10:04:52;;;;;;;6.60;1.27;;;10.00;91.30;;;;;;5160267;27;20330;-82
2022/04/09 10:07:22;;;;;;;5.13;1.30;;;9.80;92.60;;;;;;5178660;27;20283;-81
2022/04/09 10:09:49;;;;;;;5.50;1.30;;;9.60;94.90;;;;;;5143164;27;20283;-81
2022/04/09 10:12:20;;;;;;;7.83;1.50;;;;;;;;;;5160157;27;20283;-82
2022/04/09 10:14:57;;;;;;;8.03;1.43;;;9.30;99.90;;;;;;5178883;27;20354;-81
2022/04/09 10:17:24;;;;;;;6.73;1.20;;;9.20;99.90;;;;;;5160582;27;20275;-82
2022/04/09 10:19:58;;;;;;;5.70;1.30;;;9.20;99.90;;;;;;5178618;27;20350;-81
2022/04/09 10:22:30;;;;;;;10.50;2.17;;;9.10;99.90;;;;;;5178423;27;20280;-82
2022/04/09 10:24:58;;;;;;;6.47;1.33;;;9.00;99.90;;;;;;5178316;27;20386;-83
2022/04/09 10:27:38;;;;;;;8.63;1.53;;;9.00;99.90;;;;;;5178323;27;20287;-82
2022/04/09 10:30:17;;;;;;;9.00;1.73;;;9.10;99.90;;;;;;5178304;27;20279;-82
2022/04/09 10:32:46;;;;;;;10.93;1.80;;;9.30;99.90;;;;;;5178348;27;20354;-82
2022/04/09 10:35:31;;;;;;;7.70;2.00;;;;;;;;;;5159669;27;20284;-82
2022/04/09 10:38:23;;;;;;;10.88;2.00;;;9.70;99.90;;;;;;5159872;27;20294;-82
2022/04/09 10:40:55;;;;;;;6.70;1.60;;;;;;;;;;5173243;27;20058;-82
2022/04/09 10:43:26;;;;;;;7.50;1.80;;;9.80;99.90;;;;;;5177680;27;20684;-82
2022/04/09 10:46:00;;;;;;;7.87;1.50;;;9.90;99.90;;;;;;5159569;27;20292;-82
2022/04/09 10:48:30;;;;;;;7.40;1.83;;;9.90;99.90;;;;;;5177970;27;20283;-82
2022/04/09 10:51:11;;;;;;;6.73;1.43;;;9.90;99.90;;;;;;5159412;27;20046;-81
2022/04/09 10:53:49;;;;;;;7.57;1.30;;;9.90;99.40;;;;;;5178039;27;20288;-82
2022/04/09 10:56:31;;;;;;;6.70;1.40;;;9.90;98.10;;;;;;5178001;27;20338;-82
2022/04/09 10:59:04;;;;;;;7.30;1.50;;;9.80;98.50;;;;;;5178191;27;20271;-82
2022/04/09 11:01:48;;;;;;;6.63;1.57;;;9.70;97.90;;;;;;5159567;27;20287;-82
2022/04/09 11:04:29;;;;;;;4.17;0.93;;;9.80;97.80;;;;;;5177551;27;20299;-82
2022/04/09 11:07:02;;;;;;;4.57;1.40;;;9.90;97.20;;;;;;5178133;27;20291;-81
2022/04/09 11:09:41;;;;;;;8.20;1.93;;;10.00;92.50;;;;;;5159405;27;20635;-81
2022/04/09 11:12:07;;;;;;;6.50;1.20;;;10.00;91.40;;;;;;5176784;27;20769;-82
2022/04/09 11:14:44;;;;;;;7.23;1.30;;;10.10;91.00;;;;;;5177743;27;20260;-82
2022/04/09 11:17:23;;;;;;;5.87;1.63;;;10.10;90.30;;;;;;5177856;27;20053;-81
2022/04/09 11:19:49;;;;;;;7.93;1.30;;;10.20;90.30;;;;;;5159642;27;20294;-81
2022/04/09 11:22:15;;;;;;;7.50;1.43;;;10.20;90.20;;;;;;5159254;27;20283;-81
2022/04/09 11:24:41;;;;;;;7.10;1.60;;;10.10;89.90;;;;;;5142020;27;20295;-81
2022/04/09 11:27:10;;;;;;;6.60;1.83;;;10.10;90.10;;;;;;5155171;27;20356;-82
2022/04/09 11:29:37;;;;;;;6.17;1.50;;;10.10;90.50;;;;;;5156703;27;20340;-81
2022/04/09 11:32:03;;;;;;;4.70;1.20;;;10.10;88.30;;;;;;5156469;27;20288;-82
2022/04/09 11:34:46;;;;;;;7.90;1.70;;;10.10;87.10;;;;;;5156586;27;20287;-81
2022/04/09 11:37:12;;;;;;;5.73;1.53;;;10.20;86.20;;;;;;5156100;27;20276;-81
2022/04/09 11:39:44;;;;;;;4.90;0.70;;;10.10;87.40;;;;;;5156196;27;20272;-80
2022/04/09 11:42:10;;;;;;;2.60;0.70;;;9.90;85.50;;;;;;5155081;27;20372;-81
2022/04/09 11:44:38;;;;;;;1.47;0.57;;;9.80;85.60;;;;;;5156297;27;20299;-81
2022/04/09 11:47:11;;;;;;;4.10;0.60;;;9.60;85.10;;;;;;5156236;27;20311;-82
2022/04/09 11:49:37;;;;;;;4.40;0.70;;;9.60;87.20;;;;;;5155186;27;20331;-81
2022/04/09 11:52:05;;;;;;;5.40;1.00;;;9.60;89.80;;;;;;5155949;27;20279;-81
2022/04/09 11:54:32;;;;;;;2.17;0.80;;;9.60;88.30;;;;;;5155995;27;20280;-82
2022/04/09 11:56:59;;;;;;;3.30;0.60;;;9.60;88.40;;;;;;5155848;27;20305;-81
2022/04/09 11:59:25;;;;;;;2.23;0.80;;;9.50;86.40;;;;;;5154630;27;20280;-81
2022/04/09 12:01:52;;;;;;;3.30;0.80;;;9.60;90.30;;;;;;5155912;27;20685;-82
2022/04/09 12:04:20;;;;;;;3.23;0.80;;;9.60;90.80;;;;;;5155528;27;20288;-81
2022/04/09 12:06:46;;;;;;;4.60;1.00;;;9.60;91.50;;;;;;5154700;27;20285;-82
2022/04/09 12:09:13;;;;;;;3.70;1.17;;;9.60;91.80;;;;;;5155409;27;20413;-82
2022/04/09 12:11:52;;;;;;;4.37;1.23;;;9.70;92.60;;;;;;5158850;27;20292;-81
2022/04/09 12:14:20;;;;;;;3.47;1.07;;;9.80;92.20;;;;;;5155698;27;20739;-81
2022/04/09 12:16:47;;;;;;;2.87;0.70;;;9.80;90.20;;;;;;5155559;27;20281;-81
2022/04/09 12:19:13;;;;;;;3.13;0.97;;;9.80;89.10;;;;;;5155396;27;20272;-82
2022/04/09 12:21:39;;;;;;;4.13;0.77;;;9.70;87.00;;;;;;5155592;27;20279;-80
2022/04/09 12:24:13;;;;;;;5.60;1.00;;;9.60;87.30;;;;;;5154626;27;20346;-81
2022/04/09 12:26:44;;;;;;;7.03;1.20;;;9.70;85.90;;;;;;5164255;27;20327;-81
2022/04/09 12:29:17;;;;;;;4.93;0.90;;;9.60;86.50;;;;;;5176374;27;20272;-82
2022/04/09 12:31:45;;;;;;;6.43;1.30;;;9.50;87.10;;;;;;5158207;27;20287;-81
2022/04/09 12:34:11;;;;;;;5.80;1.60;;;9.50;88.00;;;;;;5177091;27;20279;-81
2022/04/09 12:36:57;;;;;;;5.87;1.03;;;9.50;88.50;;;;;;5177428;27;20276;-81
2022/04/09 12:39:24;;;;;;;4.40;1.02;;;9.60;88.40;;;;;;5158189;27;20478;-81
2022/04/09 12:41:50;;;;;;;8.37;1.80;;;9.60;88.20;;;;;;5141530;27;20057;-81
2022/04/09 12:44:32;;;;;;;8.17;1.47;;;9.60;88.20;;;;;;5157464;27;20295;-82
2022/04/09 12:46:58;;;;;;;9.13;2.27;;;9.60;88.10;;;;;;5176571;27;20298;-81
2022/04/09 12:49:28;;;;;;;7.03;1.67;;;9.70;87.80;;;;;;5176008;27;20287;-81
2022/04/09 12:51:54;;;;;;;6.30;1.10;;;9.70;89.00;;;;;;5176179;27;20105;-81
2022/04/09 12:54:21;;;;;;;4.53;1.63;;;9.60;89.60;;;;;;5157360;27;20382;-82
2022/04/09 12:56:47;;;;;;;3.77;0.70;;;9.50;91.90;;;;;;5175737;27;20304;-82
2022/04/09 12:59:12;;;;;;;4.90;0.70;;;9.40;93.00;;;;;;5175574;27;20801;-82
2022/04/09 13:01:38;;;;;;;5.00;0.70;;;9.30;92.80;;;;;;5157140;27;20057;-82
2022/04/09 13:04:04;;;;;;;3.43;0.90;;;9.30;92.10;;;;;;5175686;27;20046;-81
2022/04/09 13:06:30;;;;;;;5.60;1.00;;;9.30;91.70;;;;;;5156935;27;20561;-81